Tiempo atmosférico en la estación meteorológica de Valladolid, Valladolid (735 m.)



Fecha
DESCASC
Temp. máxima en grados centígrados (hora)
DESCASC
Temp. mínima en grados centígrados (hora)
DESCASC
Temp. media en grados centígrados
DESCASC
Racha de viento máxima en m/sg (hora)
DESCASC
Velocidad máxima media en intervalos de 10 minutos(hora)
DESCASC
Precipitaciones diarias en mm
DESCASC
Precipitaciones de 00:00 a 06:00 en mm
DESCASC
Precipitaciones de 06:00 a 12:00 en mm
DESCASC
Precipitaciones de 12:00 a 18:00 en mm
DESCASC
Precipitaciones de 18:00 a 24:00 en mm
DESCASC
31-03-2020 9.5 (15:10) 0.6 (06:40) 5.1 10.28 (15:20) 5.28 (12:40) 0.8 0 0 0.2 0.6
29-03-2020 17.8 (16:40) 3 (00:00) 10.4 11.11 (23:00) 3.61 (20:10) 0 0 0 0 0
28-03-2020 17.2 (16:10) -0.1 (00:00) 8.6 5.83 (13:50) 3.33 (14:00) 0 0 0 0 0
27-03-2020 14.1 (16:50) -0.6 (-00:0) 6.8 9.72 (00:10) 5.28 (15:00) 0 0 0 0 0
26-03-2020 13.9 (15:50) 0.5 (00:00) 7.2 8.89 (21:50) 4.17 (18:40) 0 0 0 0 0
25-03-2020 18.2 (16:40) 3.9 (00:00) 11.1 6.11 (14:30) 2.78 (13:00) 0 0 0 0 0
24-03-2020 16.9 (15:40) 5.2 (00:00) 11 9.44 (11:40) 5.28 (13:40) 0 0 0 0 0
23-03-2020 16.6 (16:20) 5 (00:00) 10.8 10.56 (19:20) 5 (17:00) 0 0 0 0 0
22-03-2020 15.5 (16:20) 6.3 (03:20) 10.9 8.06 (20:10) 4.17 (17:20) 1.2 1.2 0 0 0
21-03-2020 15.6 (13:30) 4.8 (00:00) 10.2 6.67 (15:30) 3.61 (15:40) 1.8 0 0 0 1.8
20-03-2020 16.8 (15:10) 7.1 (00:00) 11.9 7.22 (17:30) 3.33 (17:30) 0 0 0 0 0
19-03-2020 16.4 (13:30) 7.3 (00:00) 11.8 3.89 (23:59) 1.94 (23:59) 0 0 0 0 0
18-03-2020 18 (16:00) 6.8 (00:00) 12.4 5.28 (00:20) 2.5 (00:20) 0 0 0 0 0
17-03-2020 16.4 (16:00) 6.4 (00:00) 11.4 13.06 (01:30) 5 (13:00) 0 0 0 0 0
16-03-2020 7 (15:10) 1 (00:00) 4 14.17 (23:10) 5 (00:20) 11 2 7.2 0.4 1.4
15-03-2020 20.5 (14:40) 1.1 (00:00) 10.8 12.78 (23:00) 5.56 (15:50) 0 0 0 0 0
14-03-2020 18.7 (17:00) 0.9 (00:00) 9.8 3.61 (11:10) 1.67 (17:20) 0 0 0 0 0
13-03-2020 16.3 (15:20) 5.8 (23:59) 11 8.61 (06:20) 3.33 (09:10) 0 0 0 0 0
12-03-2020 22.1 (15:10) 9.7 (00:00) 15.9 6.94 (23:59) 2.22 (21:50) 0 0 0 0 0
11-03-2020 24.3 (16:10) 5.1 (00:00) 14.7 6.11 (16:30) 2.78 (16:20) 0 0 0 0 0
10-03-2020 21.7 (16:50) 3.8 (00:00) 12.8 5.56 (17:00) 2.78 (07:50) 0 0 0 0 0
09-03-2020 15.2 (15:30) 3.1 (00:00) 9.1 7.22 (00:20) 3.89 (01:20) 0 0 0 0 0
08-03-2020 14.3 (17:00) 1.1 (00:00) 7.7 8.89 (21:20) 4.44 (20:10) 0 0 0 0 0
07-03-2020 14.6 (16:30) 1 (00:00) 7.8 5.83 (01:00) 2.78 (09:00) 0 0 0 0 0
06-03-2020 10.8 (16:20) 3.3 (00:00) 7.1 13.61 (13:20) 6.67 (04:20) 0 0 0 0 0
05-03-2020 14.3 (16:50) 5.2 (00:00) 9.8 16.67 (09:30) 8.89 (12:10) 2 0 0.6 1.4 0
04-03-2020 15.6 (15:00) 10.8 (07:40) 13.2 11.39 (12:30) 5.83 (17:40) 0 0 0 0 0
03-03-2020 17.8 (16:00) 4.4 (00:00) 11.1 17.22 (16:20) 9.17 (14:00) 1 0.6 0.4 0 0

Gráficas

Temp. máximas Temp. mínimas Temp. medias Precipitaciones Rachas de viento máximas Velocidades máximas media en intervalos de 10 minutos

Datos horarios

Fecha y hora oficial Temperatura (ºC) Velocidad del viento (km/h) Dirección del viento Racha (km/h) Dirección de racha Precipitación (mm) Presión (hPa) Tendencia (hPa) Humedad (%)
2020-04-01 23:00:00 6.7 3 Noroeste 10 Nordeste 0 927 1.5 93
2020-04-01 22:00:00 7.5 3 Nordeste 13 Este 0 926.4 1.2 90
2020-04-01 21:00:00 8.2 3 Norte 14 Nordeste 0 925.8 0.8 87
2020-04-01 20:00:00 8.6 4 Norte 14 Norte 0 925.5 0.3 86
2020-04-01 19:00:00 9.2 3 Nordeste 14 Nordeste 0 925.2 -0.1 80
2020-04-01 18:00:00 9.6 4 Norte 14 Nordeste 0 925 -0.4 80
2020-04-01 17:00:00 10.1 6 Nordeste 14 Este 0 925.2 -0.2 83
2020-04-01 16:00:00 9.7 4 Noroeste 25 Sur 4.4 925.3 -0.6 90
2020-04-01 15:00:00 12.1 6 Sudeste 13 Sur 0 925.4 -0.8 61
2020-04-01 14:00:00 13.9 4 Sudeste 15 Sudeste 0 925.4 -1 54
2020-04-01 13:00:00 12.3 6 Sur 14 Sur 0 925.9 0 60
2020-04-01 12:00:00 10.7 3 Nordeste 8 Este 0 926.2 0.7 80
2020-04-01 11:00:00 8.3 4 Nordeste 10 Nordeste 0 926.4 1.4 87
2020-04-01 10:00:00 7.4 7 Nordeste 13 Nordeste 0 925.9 1.3 89
2020-04-01 09:00:00 5 7 Nordeste 14 Este 0 925.5 1.1 97
2020-04-01 08:00:00 4.3 0 Calma 7 Este 0 925 0.7 97
2020-04-01 07:00:00 4.7 2 Noroeste 8 Este 0 924.6 0.3 97
2020-04-01 06:00:00 4.5 2 Este 6 Norte 0 924.4 0.2 97
2020-04-01 05:00:00 5 3 Oeste 5 Oeste 0 924.3 0.6 97
2020-04-01 04:00:00 5.3 3 Oeste 7 Nordeste 0 924.3 0.7 96
2020-04-01 03:00:00 5.9 4 Nordeste 14 Nordeste 0 924.2 0.4 94
2020-04-01 02:00:00 6.1 5 Este 14 Este 0.2 923.7 0.5 95
2020-04-01 01:00:00 6.2 8 Este 15 Este 2.4 923.6 0.8 94
2020-04-01 00:00:00 6.5 9 Este 26 Sudeste 0.6 923.8 1.8 89
2020-03-31 23:00:00 7.1 12 Este 30 Este 0 923.2 1.6 80
2020-03-31 22:00:00 7.4 8 Este 22 Este 0 922.8 1.6 79
2020-03-31 21:00:00 7.5 11 Este 24 Nordeste 0 922 1.1 79
2020-03-31 20:00:00 8.2 13 Este 28 Este 0 921.6 0.8 76
2020-03-31 19:00:00 8.5 12 Este 28 Nordeste 0 921.2 0.3 76
2020-03-31 18:00:00 8.7 14 Este 28 Este 0.2 920.9 -0.2 73
2020-03-31 17:00:00 9.3 11 Este 29 Este 0 920.8 -0.6 67
2020-03-31 16:00:00 8.5 14 Este 37 Este 0 920.9 -0.7 66
2020-03-31 15:00:00 9.4 15 Este 31 Este 0 921.1 -0.5 62
2020-03-31 14:00:00 7.9 14 Este 30 Nordeste 0 921.4 -0.5 67
2020-03-31 13:00:00 7 12 Este 34 Este 0 921.6 -0.5 65
2020-03-31 12:00:00 4.9 15 Nordeste 34 Este 0 921.6 -0.5 70
2020-03-31 11:00:00 3.2 11 Nordeste 35 Nordeste 0 921.9 0 73
2020-03-31 10:00:00 1.9 12 Nordeste 31 Nordeste 0 922.1 0 75
2020-03-31 09:00:00 1.5 14 Este 36 Este 0 922.1 -0.7 75
2020-03-31 08:00:00 0.9 9 Nordeste 27 Nordeste 0 921.9 -1.6 78
2020-03-31 07:00:00 0.6 7 Nordeste 24 Nordeste 0 922.1 -1.8 83
2020-03-31 06:00:00 1 8 Nordeste 25 Nordeste 0 922.8 -2.4 75
2020-03-31 05:00:00 1.1 5 Norte 31 Este 0 923.5 -2.5 79
2020-03-31 04:00:00 1.5 10 Nordeste 31 Nordeste 0 923.9 -2.7 69
2020-03-31 03:00:00 1.8 9 Nordeste 32 Nordeste 0 925.2 -1.9 67
2020-03-31 02:00:00 1.7 8 Nordeste 23 Nordeste 0 926 -1.3 68
2020-03-31 01:00:00 1.8 6 Nordeste 29 Nordeste 0 926.6 -0.8 67
2020-03-31 00:00:00 2 8 Nordeste 25 Nordeste 0 927.1 -0.2 65
2020-03-30 23:00:00 2.6 7 Nordeste 26 Nordeste 0 927.3 -0.1 61
2020-03-30 22:00:00 3.1 7 Norte 27 Nordeste 0 927.4 -0.2 59
2020-03-30 21:00:00 3.8 9 Nordeste 37 Este 0 927.3 -0.9 53
2020-03-30 20:00:00 4.7 8 Nordeste 32 Nordeste 0 927.4 -0.8 47
2020-03-30 19:00:00 5.9 10 Nordeste 29 Nordeste 0 927.6 -1.3 44
2020-03-30 18:00:00 6 8 Nordeste 26 Este 0 928.2 -1.6 42
2020-03-30 17:00:00 7.3 7 Nordeste 28 Nordeste 0 928.2 -2.2 40
2020-03-30 16:00:00 6.3 8 Nordeste 28 Este 0 928.9 -2.2 43
2020-03-30 15:00:00 5.6 7 Nordeste 32 Este 0 929.8 -1.8 47
2020-03-30 14:00:00 4.9 7 Norte 33 Nordeste 0 930.4 -1.4 49
2020-03-30 13:00:00 3.9 12 Nordeste 32 Nordeste 0 931.1 -0.5 55
2020-03-30 12:00:00 3.6 9 Norte 30 Nordeste 0 931.6 -0.1 57
2020-03-30 11:00:00 3 8 Nordeste 28 Este 0 931.8 0.4 63
2020-03-30 10:00:00 2.6 7 Norte 33 Nordeste 0 931.6 0.3 65
2020-03-30 09:00:00 2.4 8 Nordeste 28 Nordeste 0 931.7 0.5 68
2020-03-30 08:00:00 2.6 7 Nordeste 30 Nordeste 0 931.4 -0.5 68
2020-03-30 07:00:00 2.4 9 Nordeste 31 Este 0 931.3 -0.5 80
2020-03-30 06:00:00 3.7 8 Norte 27 Nordeste 0 931.2 -0.7 76
2020-03-30 05:00:00 4.3 8 Nordeste 28 Nordeste 0 931.9 0 70
2020-03-30 04:00:00 4.8 8 Nordeste 32 Nordeste 0 931.8 -0.1 71
2020-03-30 03:00:00 5.3 8 Nordeste 28 Noroeste 0 931.9 -0.1 79
2020-03-30 02:00:00 5.7 9 Norte 28 Noroeste 0 931.9 -0.1 78
2020-03-30 01:00:00 6.8 7 Nordeste 28 Nordeste 0 931.9 0 73
2020-03-30 00:00:00 7.2 10 Nordeste 34 Nordeste 0 932 0.7 72
2020-03-29 23:00:00 7.9 12 Nordeste 40 Nordeste 0 932 1.2 68
2020-03-29 22:00:00 9 8 Nordeste 27 Norte 0 931.9 1.5 63
2020-03-29 21:00:00 11.6 11 Nordeste 33 Este 0 931.3 0.8 48
2020-03-29 20:00:00 14.4 7 Nordeste 29 Nordeste 0 930.8 -0.1 37
2020-03-29 19:00:00 16.2 9 Nordeste 19 Este 0 930.4 -1 34
2020-03-29 18:00:00 17.3 6 Norte 17 Sudeste 0 930.5 -1.7 33
2020-03-29 17:00:00 17.1 5 Norte 14 Este 0 930.9 -1.9 37
2020-03-29 16:00:00 17.4 8 Nordeste 18 Este 0 931.4 -1.9 32
2020-03-29 15:00:00 16 6 Norte 14 Nordeste 0 932.2 -1.5 36
2020-03-29 14:00:00 15.1 7 Norte 12 Norte 0 932.8 -0.9 43
2020-03-29 13:00:00 13.5 6 Nordeste 12 Este 0 933.3 -0.4 53
2020-03-29 12:00:00 10.1 4 Norte 11 Norte 0 933.7 0.1 63
2020-03-29 11:00:00 8.4 4 Nordeste 12 Este 0 933.7 0.5 70
2020-03-29 10:00:00 5.9 3 Norte 10 Norte 0 933.7 0.8 80
2020-03-29 09:00:00 4.2 3 Norte 7 Noroeste 0 933.6 0.7 86
2020-03-29 08:00:00 3.1 3 Noroeste 7 Nordeste 0 933.2 0.3 89
2020-03-29 07:00:00 3.7 3 Noroeste 7 Norte 0 932.9 -0.2 86
2020-03-29 06:00:00 4.1 3 Noroeste 7 Noroeste 0 932.9 -0.4 83
2020-03-29 05:00:00 4.9 3 Noroeste 11 Norte 0 932.9 -0.5 79
2020-03-29 03:00:00 5.9 4 Noroeste 9 Noroeste 0 933.3 0.2 69
2020-03-29 01:00:00 6.6 3 Norte 8 Noroeste 0 933.4 0.5 62
2020-03-29 00:00:00 7.5 4 Noroeste 8 Noroeste 0 933.3 0.8 58
2020-03-28 23:00:00 8.5 5 Noroeste 11 Noroeste 0 933.1 1.5 54
2020-03-28 22:00:00 9.1 3 Noroeste 9 Noroeste 0 932.9 1.7 52
2020-03-28 21:00:00 10.4 6 Oeste 11 Oeste 0 932.5 1.7 47
2020-03-28 20:00:00 12.1 5 Oeste 12 Noroeste 0 931.6 0.9 42
2020-03-28 19:00:00 14.1 5 Noroeste 11 Nordeste 0 931.2 0.3 36
2020-03-28 18:00:00 16.2 4 Sudeste 14 Este 0 930.8 -0.7 29
2020-03-28 17:00:00 16.8 5 Nordeste 14 Este 0 930.7 -1.2 28
2020-03-28 16:00:00 16.9 5 Nordeste 16 Este 0 930.9 -1.3 28
2020-03-28 15:00:00 16.3 5 Nordeste 18 Este 0 931.5 -1.2 25
2020-03-28 14:00:00 15.3 12 Este 21 Sudeste 0 931.9 -0.9 23
2020-03-28 13:00:00 14.3 6 Sudeste 14 Este 0 932.2 -0.5 36
2020-03-28 12:00:00 12.4 4 Norte 11 Noroeste 0 932.7 0.3 42
2020-03-28 11:00:00 9.7 3 Nordeste 9 Norte 0 932.8 0.8 50
2020-03-28 10:00:00 6.4 3 Norte 8 Norte 0 932.7 1.2 58
2020-03-28 09:00:00 2.9 4 Norte 8 Norte 0 932.4 1.5 71
2020-03-28 08:00:00 0.7 4 Norte 7 Norte 0 932 1.4 79
2020-03-28 07:00:00 0.1 4 Noroeste 8 Norte 0 931.5 1 81
2020-03-28 06:00:00 0.4 3 Norte 5 Norte 0 930.9 0.5 81
2020-03-28 05:00:00 1.2 2 Norte 4 Norte 0 930.6 0.3 78
2020-03-28 04:00:00 2 2 Norte 5 Noroeste 0 930.5 0.7 74
2020-03-28 03:00:00 2.5 2 Noroeste 5 Noroeste 0 930.4 0.8 71
2020-03-28 02:00:00 3.2 2 Noroeste 4 Norte 0 930.3 0.9 67
2020-03-28 01:00:00 4 3 Oeste 7 Oeste 0 929.8 1 62
2020-03-28 00:00:00 5.1 3 Nordeste 7 Noroeste 0 929.6 1.6 58
2020-03-27 23:00:00 5.8 5 Noroeste 10 Este 0 929.4 2.3 49
2020-03-27 22:00:00 7 3 Noroeste 8 Este 0 928.8 2.2 45
2020-03-27 21:00:00 9.8 5 Este 10 Este 0 928 2 32
2020-03-27 20:00:00 10.7 3 Este 15 Sudeste 0 927.1 1.3 32
2020-03-27 19:00:00 12.2 9 Sudeste 22 Este 0 926.6 0.8 28
2020-03-27 18:00:00 13.1 12 Este 26 Este 0 926 -0.1 27
2020-03-27 17:00:00 13.4 17 Este 29 Este 0 925.8 -0.6 28
2020-03-27 16:00:00 13.5 15 Este 35 Este 0 925.8 -1.1 29
2020-03-27 15:00:00 12.9 19 Este 31 Este 0 926.1 -1 30
2020-03-27 14:00:00 11.8 17 Este 32 Sudeste 0 926.4 -0.8 34
2020-03-27 13:00:00 10.5 18 Este 33 Este 0 926.9 -0.3 36
2020-03-27 12:00:00 9.2 12 Nordeste 29 Este 0 927.1 0 44
2020-03-27 11:00:00 7.2 12 Nordeste 28 Nordeste 0 927.2 0.4 49
2020-03-27 10:00:00 4.6 4 Nordeste 16 Nordeste 0 927.2 0.9 60
2020-03-27 09:00:00 2.2 4 Nordeste 14 Norte 0 927.1 1.1 67
2020-03-27 08:00:00 0.1 3 Norte 13 Nordeste 0 926.8 0.8 80
2020-03-27 07:00:00 -0.4 4 Norte 17 Nordeste 0 926.3 0.2 81
2020-03-27 06:00:00 0.3 7 Nordeste 21 Norte 0 926 -0.1 77
2020-03-27 05:00:00 0.8 5 Nordeste 18 Nordeste 0 926 -0.5 76
2020-03-27 04:00:00 1.7 4 Norte 15 Norte 0 926.1 -0.5 69
2020-03-27 03:00:00 2.6 5 Norte 23 Este 0 926.1 -0.4 65
2020-03-27 02:00:00 3.3 7 Nordeste 26 Este 0 926.5 0.4 62
2020-03-27 01:00:00 4.2 12 Nordeste 35 Este 0 926.6 0.8 61
2020-03-27 00:00:00 5.3 13 Este 31 Nordeste 0 926.5 0.7 59
2020-03-26 23:00:00 5.4 9 Nordeste 27 Nordeste 0 926.1 1 64
2020-03-26 22:00:00 6.1 10 Nordeste 32 Este 0 925.8 1.1 62
2020-03-26 21:00:00 7 8 Este 26 Este 0 925.8 1.7 58
2020-03-26 20:00:00 8.5 12 Este 27 Sudeste 0 925.1 0.7 51
2020-03-26 19:00:00 10.4 11 Este 28 Nordeste 0 924.7 -0.2 47
2020-03-26 18:00:00 12.5 7 Nordeste 18 Nordeste 0 924.1 -1.2 41
2020-03-26 17:00:00 13.6 5 Norte 14 Este 0 924.4 -1.6 33
2020-03-26 16:00:00 13.4 5 Nordeste 18 Nordeste 0 924.9 -1.7 32
2020-03-26 15:00:00 13 5 Noroeste 15 Nordeste 0 925.3 -1.5 35
2020-03-26 14:00:00 12.3 8 Este 19 Nordeste 0 926 -1.2 36
2020-03-26 13:00:00 10.6 6 Norte 16 Este 0 926.6 -0.8 39
2020-03-26 12:00:00 9.6 6 Norte 16 Este 0 926.8 -0.7 47
2020-03-26 11:00:00 8.9 4 Este 16 Este 0 927.2 -0.4 55
2020-03-26 10:00:00 7.1 4 Nordeste 9 Norte 0 927.4 -0.1 63
2020-03-26 09:00:00 4.4 3 Norte 5 Noroeste 0 927.5 0 71
2020-03-26 08:00:00 1.6 4 Oeste 7 Oeste 0 927.6 0.2 83
2020-03-26 07:00:00 0.7 5 Oeste 6 Oeste 0 927.5 -0.1 85
2020-03-26 06:00:00 1.1 4 Noroeste 5 Noroeste 0 927.5 -0.5 83
2020-03-26 05:00:00 1.8 3 Noroeste 6 Noroeste 0 927.4 -0.7 79
2020-03-26 04:00:00 3.7 2 Norte 18 Este 0 927.6 -0.4 75
2020-03-26 03:00:00 4.7 8 Este 21 Este 0 928 0.1 72
2020-03-26 02:00:00 5.3 5 Nordeste 13 Este 0 928.1 0.3 62
2020-03-26 01:00:00 5.9 0 Calma 5 Norte 0 928 0.4 55
2020-03-26 00:00:00 7 3 Noroeste 6 Norte 0 927.9 0.5 53
2020-03-25 23:00:00 9 2 Noroeste 14 Nordeste 0 927.8 0.8 44
2020-03-25 22:00:00 11 5 Nordeste 19 Nordeste 0 927.6 0.7 37
2020-03-25 21:00:00 12.2 6 Este 14 Este 0 927.4 0.5 42
2020-03-25 20:00:00 13.7 3 Noroeste 6 Norte 0 927 -0.1 37
2020-03-25 19:00:00 15.4 3 Norte 10 Norte 0 926.9 -0.9 32
2020-03-25 18:00:00 16.2 4 Norte 10 Norte 0 926.9 -1.4 30
2020-03-25 17:00:00 17.8 5 Noroeste 13 Noroeste 0 927.1 -1.6 28
2020-03-25 16:00:00 17.9 5 Norte 15 Norte 0 927.8 -1.6 29
2020-03-25 15:00:00 17.4 6 Norte 22 Norte 0 928.3 -1.5 29
2020-03-25 14:00:00 17.1 6 Noroeste 18 Noroeste 0 928.7 -1.5 38
2020-03-25 13:00:00 16.6 10 Oeste 21 Sudoeste 0 929.4 -1 52
2020-03-25 12:00:00 14.3 6 Sudoeste 14 Sur 0 929.8 -0.7 58
2020-03-25 11:00:00 11.7 5 Sur 10 Sudoeste 0 930.2 -0.3 65
2020-03-25 10:00:00 9.3 5 Sudoeste 12 Sudoeste 0 930.4 0.3 71
2020-03-25 09:00:00 6.9 3 Nordeste 5 Norte 0 930.5 0.5 80
2020-03-25 08:00:00 4.5 3 Oeste 5 Oeste 0 930.5 0.2 88
2020-03-25 07:00:00 3.9 3 Este 5 Noroeste 0 930.1 -0.4 90
2020-03-25 06:00:00 4.3 3 Noroeste 7 Noroeste 0 930 -0.6 88
2020-03-25 05:00:00 4.7 3 Norte 6 Nordeste 0 930.3 -0.5 86
2020-03-25 04:00:00 5.5 2 Nordeste 4 Nordeste 0 930.5 -0.2 82
2020-03-25 03:00:00 6.3 3 Norte 9 Nordeste 0 930.6 0 79
2020-03-25 02:00:00 6.7 2 Norte 6 Noroeste 0 930.8 0.1 75
2020-03-25 01:00:00 7 4 Noroeste 8 Noroeste 0 930.7 0 74
2020-03-25 00:00:00 8 3 Noroeste 4 Norte 0 930.6 0.1 71
2020-03-24 23:00:00 9.4 0 Calma 13 Nordeste 0 930.7 0.5 65
2020-03-24 22:00:00 10.8 6 Este 12 Este 0 930.7 0.9 60
2020-03-24 21:00:00 11.7 5 Este 12 Este 0 930.5 1 57
2020-03-24 20:00:00 12.8 7 Este 18 Este 0 930.2 1 53
2020-03-24 19:00:00 14.1 9 Este 28 Sudeste 0 929.8 0.2 48
2020-03-24 18:00:00 15.1 14 Este 30 Sudeste 0 929.5 -0.4 45
2020-03-24 17:00:00 16.4 14 Este 33 Este 0 929.2 -1.4 42
2020-03-24 16:00:00 15.8 13 Este 30 Este 0 929.6 -1.3 44
2020-03-24 15:00:00 16.5 14 Este 26 Sudeste 0 929.9 -1.6 43
2020-03-24 14:00:00 15 9 Este 31 Este 0 930.6 -1.1 51
2020-03-24 13:00:00 15.6 10 Este 30 Este 0 930.9 -0.9 51
2020-03-24 12:00:00 14 15 Este 34 Este 0 931.5 0 53
2020-03-24 11:00:00 13.2 18 Este 31 Este 0 931.7 0.2 58
2020-03-24 10:00:00 12.1 9 Nordeste 22 Nordeste 0 931.8 0.6 69
2020-03-24 09:00:00 9.7 8 Nordeste 18 Nordeste 0 931.5 0.5 77
2020-03-24 08:00:00 6.6 5 Nordeste 13 Nordeste 0 931.5 0.6 94
2020-03-24 07:00:00 5.4 3 Noroeste 9 Noroeste 0 931.2 0.2 95
2020-03-24 06:00:00 5.4 3 Norte 7 Noroeste 0 931 0 95
2020-03-24 05:00:00 5.9 6 Noroeste 9 Noroeste 0 930.9 -0.2 93
2020-03-24 04:00:00 6.4 4 Noroeste 11 Nordeste 0 931 -0.1 90
2020-03-24 03:00:00 7.2 4 Nordeste 13 Norte 0 931 0 88
2020-03-24 02:00:00 7.7 4 Nordeste 16 Nordeste 0 931.1 0.2 84
2020-03-24 01:00:00 8.3 4 Nordeste 15 Nordeste 0 931.1 0.4 81
2020-03-24 00:00:00 8.9 6 Este 14 Este 0 931 1 78
2020-03-23 23:00:00 9.4 6 Nordeste 14 Este 0 930.9 1.4 75
2020-03-23 22:00:00 10 9 Este 19 Este 0 930.7 1.5 70
2020-03-23 21:00:00 11.1 12 Este 22 Este 0 930 1.2 64
2020-03-23 20:00:00 11.8 6 Este 38 Este 0 929.5 0.9 58
2020-03-23 19:00:00 14.1 12 Este 26 Sudeste 0 929.2 0.5 53
2020-03-23 18:00:00 14.6 14 Este 29 Este 0 928.8 -0.3 50
2020-03-23 17:00:00 15.2 18 Este 30 Sudeste 0 928.6 -1.2 47
2020-03-23 16:00:00 15.7 15 Este 32 Sudeste 0 928.7 -1.6 46
2020-03-23 15:00:00 14.9 13 Este 24 Este 0 929.1 -1.6 49
2020-03-23 14:00:00 14.3 14 Este 32 Este 0 929.8 -0.8 52
2020-03-23 13:00:00 13.5 15 Este 32 Este 0 930.3 -0.3 57
2020-03-23 12:00:00 12.5 14 Este 29 Nordeste 0 930.7 0.2 61
2020-03-23 11:00:00 12.6 13 Nordeste 25 Nordeste 0 930.6 0.5 63
2020-03-23 10:00:00 9.9 5 Este 13 Nordeste 0 930.6 1 78
2020-03-23 09:00:00 6.3 4 Norte 14 Norte 0 930.5 1.3 89
2020-03-23 08:00:00 5.4 5 Norte 10 Norte 0 930.1 1.2 94
2020-03-23 07:00:00 5.4 3 Noroeste 15 Norte 0 929.6 0.9 94
2020-03-23 06:00:00 5.4 4 Norte 13 Nordeste 0 929.2 0.5 95
2020-03-23 05:00:00 5.6 4 Norte 12 Norte 0 928.9 0.2 94
2020-03-23 04:00:00 6.1 4 Norte 13 Norte 0 928.7 -0.2 92
2020-03-23 03:00:00 6.6 4 Norte 17 Norte 0 928.7 -0.2 90
2020-03-23 02:00:00 7.1 3 Norte 13 Norte 0 928.7 0.1 89
2020-03-23 01:00:00 7.9 3 Noroeste 12 Norte 0 928.9 0.6 86
2020-03-23 00:00:00 9.4 3 Noroeste 10 Noroeste 0 928.9 1.3 81
2020-03-22 23:00:00 10.5 3 Noroeste 12 Norte 0 928.6 1.7 77
2020-03-22 22:00:00 11 3 Nordeste 15 Nordeste 0 928.3 1.9 72
2020-03-22 21:00:00 11 5 Este 29 Este 0 927.6 1.7 72
2020-03-22 20:00:00 11.5 12 Este 24 Nordeste 0 926.9 0.7 68
2020-03-22 19:00:00 12.3 11 Nordeste 21 Nordeste 0 926.4 0.8 62
2020-03-22 18:00:00 12.1 8 Este 27 Este 0 925.9 -0.2 62
2020-03-22 17:00:00 13.1 6 Nordeste 26 Este 0 926.2 -0.3 66
2020-03-22 16:00:00 15 4 Norte 14 Norte 0 925.6 -1.3 61
2020-03-22 15:00:00 13.6 6 Norte 17 Norte 0 926.1 -1.1 66
2020-03-22 14:00:00 13.8 7 Este 16 Este 0 926.5 -0.8 62
2020-03-22 13:00:00 13.2 4 Este 10 Este 0 926.9 -0.3 72
2020-03-22 12:00:00 11.2 4 Nordeste 9 Norte 0 927.2 0.5 79
2020-03-22 11:00:00 9.9 4 Norte 10 Norte 0 927.3 0.9 87
2020-03-22 10:00:00 8.5 3 Nordeste 8 Nordeste 0 927.2 1.2 93
2020-03-22 09:00:00 7.6 2 Norte 6 Norte 0 926.7 0.8 96
2020-03-22 08:00:00 7.1 0 Calma 8 Noroeste 0 926.4 0.8 98
2020-03-22 07:00:00 7 3 Norte 8 Nordeste 0 926 0.2 97
2020-03-22 06:00:00 7 3 Norte 10 Nordeste 0 925.9 0.1 98
2020-03-22 05:00:00 6.8 3 Norte 8 Nordeste 0 925.6 -0.5 98
2020-03-22 04:00:00 6.6 0 Calma 5 Norte 0 925.8 -0.5 98
2020-03-22 03:00:00 6.5 3 Oeste 6 Noroeste 0.2 925.8 -0.5 96
2020-03-22 02:00:00 6.8 3 Noroeste 5 Sudoeste 0.8 926.1 -0.1 95
2020-03-22 01:00:00 7.4 3 Sudeste 9 Sudeste 0.2 926.3 0.3 91
2020-03-22 00:00:00 7.7 3 Sudeste 10 Sudeste 0.4 926.3 0.8 91
2020-03-21 23:00:00 7.8 3 Sur 14 Sur 1 926.2 1 93
2020-03-21 22:00:00 8.5 5 Sur 12 Sur 0.4 926 1.1 88
2020-03-21 21:00:00 8.9 4 Sudeste 12 Sur 0 925.5 1.2 88
2020-03-21 20:00:00 9.2 6 Sur 21 Sudeste 0 925.2 1 86
2020-03-21 19:00:00 10.6 10 Sur 19 Sur 0 924.9 0.6 83
2020-03-21 18:00:00 11.7 8 Sudoeste 19 Sudoeste 0 924.3 -0.4 72
2020-03-21 17:00:00 12.4 10 Sudoeste 22 Oeste 0 924.2 -0.9 69
2020-03-21 16:00:00 13.9 10 Oeste 24 Oeste 0 924.3 -1.2 64
2020-03-21 15:00:00 13.9 6 Sudoeste 18 Oeste 0 924.7 -1.3 60
2020-03-21 14:00:00 15 10 Sudoeste 19 Sudoeste 0 925.1 -0.8 57
2020-03-21 13:00:00 14.3 7 Oeste 21 Sudoeste 0 925.5 -0.1 65
2020-03-21 12:00:00 12.8 6 Sudoeste 13 Sur 0 926 0.4 67
2020-03-21 11:00:00 12.8 5 Sur 17 Este 0 925.9 0.1 69
2020-03-21 10:00:00 9.9 3 Nordeste 10 Este 0 925.6 -0.3 82
2020-03-21 09:00:00 7.3 3 Norte 9 Noroeste 0 925.6 -0.6 91
2020-03-21 08:00:00 5 3 Noroeste 6 Noroeste 0 925.8 -0.5 96
2020-03-21 07:00:00 4.9 2 Norte 6 Noroeste 0 925.9 -0.5 94
2020-03-21 06:00:00 5.3 2 Sudoeste 5 Noroeste 0 926.2 -0.7 94
2020-03-21 05:00:00 5.7 2 Nordeste 8 Nordeste 0 926.3 -1 92
2020-03-21 04:00:00 6.4 3 Norte 9 Nordeste 0 926.4 -1.2 90
2020-03-21 03:00:00 7.2 2 Norte 8 Nordeste 0 926.9 -0.7 86
2020-03-21 02:00:00 8.2 3 Este 10 Este 0 927.3 -0.6 82
2020-03-21 01:00:00 8.9 6 Este 15 Nordeste 0 927.6 -0.5 81
2020-03-21 00:00:00 9.6 8 Este 16 Este 0 927.6 -0.7 79
2020-03-20 23:00:00 10 7 Este 12 Este 0 927.9 -0.2 77
2020-03-20 22:00:00 10.6 4 Este 10 Sur 0 928.1 0 75
2020-03-20 21:00:00 11.2 4 Sudeste 13 Sur 0 928.3 0.5 76
2020-03-20 20:00:00 11.6 5 Sur 16 Oeste 0 928.1 0.2 77
2020-03-20 19:00:00 12.4 3 Sudoeste 21 Sudoeste 0 928.1 0.3 78
2020-03-20 18:00:00 13.2 7 Sudoeste 26 Sudoeste 0 927.8 -0.5 75
2020-03-20 17:00:00 15.4 9 Sur 23 Sur 0 927.9 -0.9 57
2020-03-20 16:00:00 16 6 Sur 18 Sur 0 927.8 -1.3 55
2020-03-20 15:00:00 15.8 8 Sudeste 18 Sur 0 928.3 -1.4 57
2020-03-20 14:00:00 14.9 11 Sudeste 24 Sudeste 0 928.8 -1 59
2020-03-20 13:00:00 14.5 10 Este 21 Este 0 929.1 -0.8 63
2020-03-20 12:00:00 12.8 8 Sudeste 14 Este 0 929.7 0 71
2020-03-20 11:00:00 10.7 7 Este 14 Este 0 929.8 0.4 78
2020-03-20 10:00:00 8.9 4 Este 8 Este 0 929.9 0.7 84
2020-03-20 09:00:00 7.7 0 Calma 5 Este 0 929.7 0.4 90
2020-03-20 08:00:00 7.1 0 Calma 5 Norte 0 929.4 -0.1 90
2020-03-20 07:00:00 7.9 4 Este 10 Nordeste 0 929.2 -0.4 85
2020-03-20 06:00:00 8.1 5 Este 10 Este 0 929.3 -0.6 84
2020-03-20 05:00:00 8 5 Este 8 Este 0 929.5 -0.6 87
2020-03-20 04:00:00 8 0 Calma 8 Este 0 929.6 -0.7 86
2020-03-20 03:00:00 8.7 2 Este 6 Este 0 929.9 -0.7 84
2020-03-20 02:00:00 10.1 4 Este 8 Sudeste 0 930.1 -0.6 77
2020-03-20 01:00:00 10.8 3 Sudeste 14 Sur 0 930.3 -0.4 74
2020-03-20 00:00:00 11.2 7 Sur 14 Sur 0 930.6 0 72
2020-03-19 23:00:00 10.6 3 Noroeste 6 Sur 0 930.7 0 84
2020-03-19 22:00:00 11 0 Calma 7 Oeste 0 930.7 0 83
2020-03-19 21:00:00 11.3 4 Oeste 6 Oeste 0 930.6 -0.2 81
2020-03-19 20:00:00 12.7 2 Oeste 7 Sudoeste 0 930.7 -0.5 75
2020-03-19 19:00:00 14.4 4 Sudoeste 10 Sur 0 930.7 -0.9 68
2020-03-19 18:00:00 15.3 5 Sudoeste 11 Sudoeste 0 930.8 -1.4 66
2020-03-19 17:00:00 16 4 Sudoeste 12 Oeste 0 931.2 -1.7 64
2020-03-19 16:00:00 16.4 4 Sudoeste 8 Sur 0 931.6 -2.1 59
2020-03-19 15:00:00 16.1 3 Norte 9 Norte 0 932.2 -2.1 63
2020-03-19 14:00:00 15.9 4 Norte 9 Norte 0 932.9 -2 63
2020-03-19 13:00:00 16 2 Norte 8 Norte 0 933.7 -1.5 61
2020-03-19 12:00:00 15 4 Norte 9 Nordeste 0 934.3 -0.7 67
2020-03-19 11:00:00 12.5 4 Nordeste 8 Noroeste 0 934.9 -0.2 75
2020-03-19 10:00:00 9.8 2 Nordeste 6 Norte 0 935.2 0.2 88
2020-03-19 09:00:00 8.3 3 Noroeste 6 Norte 0 935 0.3 94
2020-03-19 08:00:00 7.4 0 Calma 5 Noroeste 0 935.1 0.3 96
2020-03-19 07:00:00 7.3 3 Noroeste 5 Nordeste 0 935 0 95
2020-03-19 06:00:00 7.6 2 Noroeste 5 Noroeste 0 934.7 -0.9 94
2020-03-19 05:00:00 7.8 3 Noroeste 5 Noroeste 0 934.8 -1.3 92
2020-03-19 04:00:00 8.4 2 Norte 5 Norte 0 935 -1.5 89
2020-03-19 03:00:00 8.8 2 Nordeste 6 Nordeste 0 935.6 -1.2 87
2020-03-19 02:00:00 9.3 3 Noroeste 6 Noroeste 0 936.1 -1.1 86
2020-03-19 01:00:00 9.9 2 Norte 6 Norte 0 936.5 -0.7 84
2020-03-19 00:00:00 10.6 2 Noroeste 5 Norte 0 936.8 -0.2 82
2020-03-18 23:00:00 11.4 2 Norte 8 Nordeste 0 937.2 0.4 84
2020-03-18 22:00:00 12.1 3 Norte 6 Norte 0 937.2 0.5 83
2020-03-18 21:00:00 13.2 2 Noroeste 7 Oeste 0 937 0.4 76
2020-03-18 20:00:00 14.5 4 Oeste 7 Noroeste 0 936.8 0 74
2020-03-18 19:00:00 16.1 3 Noroeste 6 Noroeste 0 936.7 -0.7 70
2020-03-18 18:00:00 16.9 3 Noroeste 9 Norte 0 936.6 -1.1 65
2020-03-18 17:00:00 17.3 3 Norte 8 Norte 0 936.8 -1.7 64
2020-03-18 16:00:00 17.9 5 Este 11 Este 0 937.4 -1.9 57
2020-03-18 15:00:00 16.8 3 Nordeste 12 Nordeste 0 937.7 -2.1 60
2020-03-18 14:00:00 15.4 4 Norte 10 Norte 0 938.5 -1.6 68
2020-03-18 13:00:00 13.7 3 Nordeste 10 Noroeste 0 939.3 -1 76
2020-03-18 12:00:00 11.1 5 Norte 10 Norte 0 939.8 -0.3 81
2020-03-18 11:00:00 9.1 5 Norte 15 Norte 0 940.1 0 90
2020-03-18 10:00:00 7.8 3 Norte 11 Norte 0 940.3 0.1 92
2020-03-18 09:00:00 7.4 4 Norte 12 Nordeste 0 940.1 0.1 93
2020-03-18 08:00:00 6.9 3 Norte 8 Norte 0 940.1 0.2 96
2020-03-18 07:00:00 6.9 3 Norte 9 Nordeste 0 940.2 0.3 96
2020-03-18 06:00:00 7 3 Noroeste 8 Noroeste 0 940 -0.2 95
2020-03-18 05:00:00 7.4 3 Norte 9 Norte 0 939.9 -0.7 95
2020-03-18 04:00:00 7.6 3 Noroeste 8 Este 0 939.9 -0.9 92
2020-03-18 03:00:00 8.9 4 Nordeste 12 Nordeste 0 940.2 -0.9 90
2020-03-18 02:00:00 9.5 4 Nordeste 15 Este 0 940.6 -0.6 88
2020-03-18 01:00:00 10 8 Este 19 Nordeste 0 940.8 -0.3 86
2020-03-18 00:00:00 9.9 4 Nordeste 13 Nordeste 0 941.1 0.6 87
2020-03-17 23:00:00 10.8 7 Este 21 Este 0 941.2 1.4 83
2020-03-17 22:00:00 11.4 9 Este 19 Este 0 941.1 2.2 83
2020-03-17 21:00:00 11.1 3 Norte 23 Nordeste 0 940.5 2.2 85
2020-03-17 20:00:00 12.3 5 Norte 19 Norte 0 939.8 2 80
2020-03-17 19:00:00 13.1 8 Nordeste 24 Este 0 938.9 1.1 76
2020-03-17 18:00:00 14.9 13 Este 30 Este 0 938.3 0.4 68
2020-03-17 17:00:00 15.3 14 Este 31 Este 0 937.8 -0.5 66
2020-03-17 16:00:00 16.3 12 Nordeste 32 Nordeste 0 937.8 -0.6 62
2020-03-17 15:00:00 15.6 13 Este 30 Este 0 937.9 -0.6 64
2020-03-17 14:00:00 13.8 15 Este 36 Este 0 938.3 -0.1 70
2020-03-17 13:00:00 12.6 18 Este 40 Nordeste 0 938.4 0.3 71
2020-03-17 12:00:00 11.2 15 Este 27 Este 0 938.5 0.9 75
2020-03-17 11:00:00 10.4 11 Nordeste 34 Norte 0 938.4 1.4 78
2020-03-17 10:00:00 9.3 12 Nordeste 35 Nordeste 0 938.1 1.4 81
2020-03-17 09:00:00 7.9 10 Nordeste 35 Nordeste 0 937.6 2.1 86
2020-03-17 08:00:00 7.2 10 Nordeste 44 Nordeste 0 937 2.1 88
2020-03-17 07:00:00 7.3 15 Nordeste 36 Nordeste 0 936.7 2.2 85
2020-03-17 06:00:00 6.9 8 Nordeste 31 Nordeste 0 935.5 0.8 86
2020-03-17 05:00:00 6.8 9 Nordeste 26 Nordeste 0 934.9 1 86
2020-03-17 04:00:00 6.7 8 Nordeste 35 Nordeste 0 934.5 1 86
2020-03-17 03:00:00 6.7 13 Nordeste 40 Nordeste 0 934.7 1.1 84
2020-03-17 02:00:00 6.6 11 Nordeste 47 Nordeste 0 933.9 0.6 84
2020-03-17 01:00:00 6.4 10 Nordeste 42 Nordeste 0 933.5 0.8 84
2020-03-17 00:00:00 6.4 9 Nordeste 51 Nordeste 0 933.6 1.9 84
2020-03-16 23:00:00 6.4 12 Nordeste 42 Norte 0 933.3 2 85
2020-03-16 22:00:00 5.7 8 Norte 42 Norte 0.4 932.7 2.3 89
2020-03-16 21:00:00 5.7 13 Norte 41 Nordeste 0 931.7 1.5 86
2020-03-16 20:00:00 5.7 11 Norte 45 Noroeste 0.6 931.3 1.1 85
2020-03-16 19:00:00 5.7 10 Norte 38 Nordeste 0.4 930.4 0.7 86
2020-03-16 18:00:00 6.4 12 Norte 49 Nordeste 0 930.2 1.1 78
2020-03-16 17:00:00 6.3 8 Norte 40 Nordeste 0.2 930.2 1.8 80
2020-03-16 16:00:00 6.4 13 Norte 48 Este 0 929.7 0.9 80
2020-03-16 15:00:00 6.9 12 Nordeste 50 Norte 0.2 929.1 -0.1 73
2020-03-16 14:00:00 6.2 12 Norte 36 Nordeste 0 928.4 -0.5 77
2020-03-16 13:00:00 5.2 10 Norte 44 Norte 0 928.8 0.3 82
2020-03-16 12:00:00 4 10 Norte 29 Norte 1.6 929.2 1.4 92
2020-03-16 11:00:00 2 8 Norte 26 Noroeste 1.4 928.9 1.9 98
2020-03-16 10:00:00 1.4 9 Norte 25 Norte 1.4 928.5 2.3 97
2020-03-16 09:00:00 1.8 8 Norte 25 Norte 1.6 927.8 2.2 96
2020-03-16 08:00:00 1.8 12 Noroeste 24 Norte 0.8 927 1.8 95
2020-03-16 07:00:00 2 9 Norte 29 Norte 0.4 926.2 0.9 94
2020-03-16 06:00:00 2.4 13 Norte 32 Noroeste 0.2 925.6 0 94
2020-03-16 05:00:00 2.1 14 Norte 29 Noroeste 0.2 925.2 -0.5 95
2020-03-16 04:00:00 2.3 9 Noroeste 22 Nordeste 0.8 925.3 -0.5 94
2020-03-16 03:00:00 3 4 Norte 14 Norte 0.6 925.6 -0.9 94
2020-03-16 02:00:00 2.5 8 Noroeste 27 Oeste 0.2 925.7 -0.2 92
2020-03-16 01:00:00 2.6 15 Noroeste 38 Noroeste 0 925.8 0.3 90
2020-03-16 00:00:00 3.3 14 Noroeste 38 Noroeste 0 926.5 1.5 87
2020-03-15 23:00:00 4.4 17 Noroeste 46 Noroeste 0 925.9 1.7 82
2020-03-15 22:00:00 8.7 13 Noroeste 31 Norte 0 925.5 1.1 62
2020-03-15 21:00:00 11.3 8 Sudoeste 19 Oeste 0 925 0.6 59
2020-03-15 20:00:00 11.8 10 Oeste 24 Oeste 0 924.2 -0.2 59
2020-03-15 19:00:00 12.9 11 Oeste 33 Oeste 0 924.4 -0.2 58
2020-03-15 18:00:00 15.7 18 Oeste 37 Oeste 0 924.4 -0.5 50
2020-03-15 17:00:00 17.4 17 Oeste 42 Oeste 0 924.4 -1.6 46
2020-03-15 16:00:00 17.2 15 Oeste 37 Oeste 0 924.6 -2.8 54
2020-03-15 15:00:00 19.8 12 Sudoeste 35 Oeste 0 924.9 -3.5 41
2020-03-15 14:00:00 19.4 9 Sudoeste 26 Oeste 0 926 -3.3 40
2020-03-15 13:00:00 17.7 10 Oeste 21 Oeste 0 927.4 -2.4 39
2020-03-15 12:00:00 14.1 5 Sur 13 Sudeste 0 928.4 -1.6 46
2020-03-15 11:00:00 10.5 5 Sur 11 Sur 0 929.3 -0.6 54
2020-03-15 10:00:00 8 3 Este 6 Sudeste 0 929.8 -0.2 60
2020-03-15 09:00:00 4.1 2 Norte 5 Nordeste 0 930 -0.4 76
2020-03-15 08:00:00 1.2 2 Norte 4 Norte 0 929.9 -0.8 86
2020-03-15 07:00:00 1.5 2 Norte 4 Norte 0 930 -1 85
2020-03-15 06:00:00 2.1 3 Norte 5 Sudeste 0 930.4 -1.4 81
2020-03-15 05:00:00 3 2 Este 4 Nordeste 0 930.7 -1.7 80
2020-03-15 04:00:00 3.5 0 Calma 6 Este 0 931 -1.8 78
2020-03-15 03:00:00 4.4 3 Nordeste 4 Este 0 931.8 -1.4 75
2020-03-15 02:00:00 5.5 2 Norte 5 Este 0 932.4 -1 69
2020-03-15 01:00:00 6.6 3 Este 5 Este 0 932.8 -0.5 66
2020-03-15 00:00:00 7.4 2 Norte 4 Norte 0 933.2 -0.1 61
2020-03-14 23:00:00 8.7 2 Nordeste 5 Noroeste 0 933.4 0.2 53
2020-03-14 22:00:00 9.7 4 Noroeste 6 Norte 0 933.3 0.2 46
2020-03-14 21:00:00 11.8 4 Noroeste 5 Oeste 0 933.3 0.1 37
2020-03-14 20:00:00 13.4 4 Oeste 8 Norte 0 933.2 -0.2 36
2020-03-14 19:00:00 15.5 4 Noroeste 10 Noroeste 0 933.1 -0.7 31
2020-03-14 18:00:00 16.4 4 Noroeste 13 Noroeste 0 933.2 -1.2 28
2020-03-14 17:00:00 18.7 4 Oeste 9 Sudoeste 0 933.4 -1.9 28
2020-03-14 16:00:00 18.1 5 Norte 10 Norte 0 933.8 -2.2 27
2020-03-14 15:00:00 17.4 5 Nordeste 12 Este 0 934.4 -2.2 28
2020-03-14 14:00:00 16 4 Nordeste 12 Norte 0 935.3 -1.5 27
2020-03-14 13:00:00 13.4 3 Norte 12 Norte 0 936 -0.9 45
2020-03-14 12:00:00 10.9 3 Norte 13 Este 0 936.6 -0.1 55
2020-03-14 11:00:00 8.1 4 Norte 10 Noroeste 0 936.8 0.7 62
2020-03-14 10:00:00 5.9 3 Norte 8 Nordeste 0 936.9 1 72
2020-03-14 09:00:00 3.8 2 Nordeste 8 Norte 0 936.7 1.1 81
2020-03-14 08:00:00 1 2 Norte 4 Nordeste 0 936.1 0.9 90
2020-03-14 07:00:00 1 3 Noroeste 6 Noroeste 0 935.9 0.6 88
2020-03-14 06:00:00 1.4 2 Norte 8 Norte 0 935.6 0 88
2020-03-14 05:00:00 2.2 3 Noroeste 7 Noroeste 0 935.2 -0.4 90
2020-03-14 04:00:00 2.8 3 Noroeste 8 Norte 0 935.3 -0.6 88
2020-03-14 03:00:00 3.3 3 Noroeste 9 Noroeste 0 935.6 -0.2 87
2020-03-14 02:00:00 4.3 6 Noroeste 12 Norte 0 935.6 0 84
2020-03-14 01:00:00 5.4 3 Norte 9 Noroeste 0 935.9 0.7 82
2020-03-14 00:00:00 5.8 4 Noroeste 10 Norte 0 935.8 1.2 83
2020-03-13 23:00:00 6.5 3 Norte 13 Norte 0 935.6 1.5 82
2020-03-13 22:00:00 7.3 5 Norte 14 Nordeste 0 935.2 1.6 82
2020-03-13 21:00:00 8.6 6 Norte 21 Nordeste 0 934.6 1.3 77
2020-03-13 20:00:00 10 5 Norte 20 Norte 0 934.1 1 71
2020-03-13 19:00:00 11.5 6 Norte 24 Este 0 933.6 0.6 67
2020-03-13 18:00:00 13.2 6 Nordeste 24 Nordeste 0 933.3 0.2 64
2020-03-13 17:00:00 14.4 6 Norte 17 Nordeste 0 933.1 -0.6 62
2020-03-13 16:00:00 15.2 4 Norte 17 Norte 0 933 -1.3 62
2020-03-13 15:00:00 16 6 Nordeste 21 Nordeste 0 933.1 -1.5 59
2020-03-13 14:00:00 15.1 6 Norte 18 Nordeste 0 933.7 -1 61
2020-03-13 13:00:00 14.4 6 Norte 23 Norte 0 934.3 -0.6 63
2020-03-13 12:00:00 12.5 6 Norte 22 Nordeste 0 934.6 0 69
2020-03-13 11:00:00 11.3 7 Norte 20 Norte 0 934.7 0.3 72
2020-03-13 10:00:00 10.1 8 Nordeste 31 Nordeste 0 934.9 0.7 76
2020-03-13 09:00:00 8.4 7 Norte 27 Nordeste 0 934.6 0.8 83
2020-03-13 08:00:00 7.8 8 Nordeste 29 Nordeste 0 934.4 0.7 84
2020-03-13 07:00:00 8.2 7 Nordeste 31 Norte 0 934.2 0.3 84
2020-03-13 06:00:00 8.1 9 Nordeste 30 Norte 0 933.8 -0.2 85
2020-03-13 05:00:00 8.2 6 Norte 23 Nordeste 0 933.7 -0.5 85
2020-03-13 04:00:00 8.6 7 Norte 26 Norte 0 933.9 -0.5 84
2020-03-13 03:00:00 8.8 5 Nordeste 21 Nordeste 0 934 -0.7 84
2020-03-13 02:00:00 9.1 6 Norte 23 Norte 0 934.2 -0.5 85
2020-03-13 01:00:00 9.6 6 Norte 30 Nordeste 0 934.4 0.1 85
2020-03-13 00:00:00 9.8 7 Norte 25 Norte 0 934.7 1.1 83
2020-03-12 23:00:00 10.2 5 Norte 23 Norte 0 934.7 1.7 82
2020-03-12 22:00:00 10.9 7 Nordeste 23 Nordeste 0 934.3 1.9 81
2020-03-12 21:00:00 12.1 4 Norte 21 Nordeste 0 933.6 1.7 78
2020-03-12 20:00:00 13.6 6 Norte 17 Norte 0 933 1.1 72
2020-03-12 19:00:00 16.1 5 Norte 18 Norte 0 932.4 0.2 68
2020-03-12 18:00:00 18.6 6 Norte 16 Norte 0 931.9 -0.9 63
2020-03-12 17:00:00 20.2 5 Noroeste 13 Norte 0 931.9 -1.7 48
2020-03-12 16:00:00 21.6 5 Noroeste 14 Noroeste 0 932.2 -2 46
2020-03-12 15:00:00 21.7 4 Noroeste 13 Noroeste 0 932.8 -2 48
2020-03-12 14:00:00 20.1 3 Noroeste 9 Oeste 0 933.6 -1.4 53
2020-03-12 13:00:00 18.6 2 Nordeste 7 Nordeste 0 934.2 -0.8 52
2020-03-12 12:00:00 17.1 3 Norte 8 Este 0 934.8 0 56
2020-03-12 11:00:00 14.5 3 Nordeste 7 Sudeste 0 935 0.5 71
2020-03-12 10:00:00 12.1 2 Norte 5 Norte 0 935 0.7 77
2020-03-12 09:00:00 10.5 2 Norte 6 Nordeste 0 934.8 0.3 83
2020-03-12 08:00:00 9.7 2 Norte 5 Noroeste 0 934.5 -0.1 86
2020-03-12 07:00:00 10.3 2 Este 4 Este 0 934.3 -0.6 85
2020-03-12 06:00:00 10.9 0 Calma 6 Sudeste 0 934.5 -1.2 81
2020-03-12 05:00:00 11.6 0 Calma 4 Norte 0 934.6 -1.5 79
2020-03-12 04:00:00 12.2 0 Calma 5 Este 0 934.9 -1.4 77
2020-03-12 03:00:00 12.5 2 Norte 5 Sudeste 0 935.7 -1.1 74
2020-03-12 02:00:00 13.5 3 Sudeste 5 Noroeste 0 936.1 -0.6 71
2020-03-12 01:00:00 14.2 3 Sudeste 9 Sur 0 936.3 -0.4 68
2020-03-12 00:00:00 15.1 3 Sur 5 Sudoeste 0 936.8 0.4 65
2020-03-11 23:00:00 15.7 2 Este 7 Sur 0 936.7 0.1 61
2020-03-11 22:00:00 16.5 4 Oeste 8 Oeste 0 936.7 0.2 59
2020-03-11 21:00:00 18.2 3 Sudeste 6 Oeste 0 936.4 0.1 51
2020-03-11 20:00:00 18.9 2 Oeste 6 Sudoeste 0 936.6 0.2 49
2020-03-11 19:00:00 21 4 Oeste 10 Sudoeste 0 936.5 -0.2 43
2020-03-11 18:00:00 22.7 5 Sudoeste 19 Oeste 0 936.3 -0.9 34
2020-03-11 17:00:00 23.8 8 Sudoeste 22 Oeste 0 936.4 -1.6 32
2020-03-11 16:00:00 24 6 Oeste 17 Oeste 0 936.7 -2 34
2020-03-11 15:00:00 22.5 7 Sudoeste 17 Oeste 0 937.2 -2.1 37
2020-03-11 14:00:00 21.6 7 Sudoeste 16 Oeste 0 938 -1.5 35
2020-03-11 13:00:00 19.4 6 Sudoeste 12 Oeste 0 938.7 -0.9 46
2020-03-11 12:00:00 16.4 6 Sur 13 Sudoeste 0 939.3 0 51
2020-03-11 11:00:00 14 4 Sudeste 9 Sudeste 0 939.5 0.3 62
2020-03-11 10:00:00 11.3 2 Sur 6 Sudeste 0 939.6 0.6 69
2020-03-11 09:00:00 7.2 2 Nordeste 4 Este 0 939.3 0.4 84
2020-03-11 08:00:00 5.1 2 Este 3 Sudeste 0 939.2 0.3 92
2020-03-11 07:00:00 5.8 3 Sudeste 5 Sudeste 0 939 0 92
2020-03-11 06:00:00 6.3 2 Oeste 6 Sur 0 938.9 -0.7 87
2020-03-11 05:00:00 8.1 4 Sur 11 Sur 0 938.9 -0.9 85
2020-03-11 04:00:00 7.3 6 Sur 11 Sur 0 939 -0.9 89
2020-03-11 03:00:00 7.5 3 Sur 8 Sur 0 939.6 -0.3 79
2020-03-11 02:00:00 9.2 2 Nordeste 13 Sur 0 939.8 -0.1 73
2020-03-11 01:00:00 11.5 5 Sur 12 Sudoeste 0 939.9 0.1 64
2020-03-11 00:00:00 13.3 8 Sudoeste 13 Sudoeste 0 939.9 0.4 56
2020-03-10 23:00:00 13.4 7 Sur 13 Sudoeste 0 939.9 0.6 58
2020-03-10 22:00:00 13.7 6 Oeste 12 Sudoeste 0 939.8 0.8 53
2020-03-10 21:00:00 15.9 8 Sudoeste 18 Sudoeste 0 939.5 0.6 53
2020-03-10 20:00:00 17.1 9 Oeste 17 Oeste 0 939.3 0.4 49
2020-03-10 19:00:00 18.3 8 Oeste 18 Oeste 0 939 -0.5 48
2020-03-10 18:00:00 20.3 8 Oeste 18 Sudoeste 0 938.9 -0.7 46
2020-03-10 17:00:00 21.7 8 Oeste 20 Sudoeste 0 938.9 -1.4 42
2020-03-10 16:00:00 21.2 8 Oeste 17 Sudoeste 0 939.5 -1.6 43
2020-03-10 15:00:00 20.3 8 Sudoeste 20 Sudoeste 0 939.6 -2.1 44
2020-03-10 14:00:00 18.2 7 Sudoeste 17 Sudoeste 0 940.3 -1.7 48
2020-03-10 13:00:00 15.5 6 Sudoeste 15 Sudoeste 0 941.1 -1 48
2020-03-10 12:00:00 12.3 7 Sudoeste 12 Sur 0 941.7 -0.1 59
2020-03-10 11:00:00 10 6 Sur 10 Sur 0 942 0.6 65
2020-03-10 10:00:00 7.5 5 Sur 13 Sudeste 0 942.1 0.9 73
2020-03-10 09:00:00 5.2 5 Sudeste 18 Sur 0 941.8 1 79
2020-03-10 08:00:00 4.6 10 Sur 19 Sur 0 941.4 0.6 80
2020-03-10 07:00:00 4.8 7 Sur 17 Sur 0 941.2 0.4 80
2020-03-10 06:00:00 4 3 Sudeste 7 Sudeste 0 940.8 0 86
2020-03-10 05:00:00 4.1 0 Calma 9 Sur 0 940.8 -0.2 83
2020-03-10 04:00:00 5.1 4 Sur 11 Sur 0 940.8 -0.3 79
2020-03-10 03:00:00 6 7 Sur 13 Sur 0 940.8 -0.6 74
2020-03-10 02:00:00 6.6 2 Sudeste 10 Sur 0 941 -0.4 72
2020-03-10 01:00:00 7.8 4 Sur 14 Sur 0 941.1 -0.1 68
2020-03-10 00:00:00 9.2 8 Sur 13 Sur 0 941.4 0.5 64
2020-03-09 23:00:00 8.6 4 Noroeste 8 Sudoeste 0 941.4 0.8 65
2020-03-09 22:00:00 8.9 5 Oeste 8 Sudoeste 0 941.2 0.7 64
2020-03-09 21:00:00 10 4 Oeste 13 Sudoeste 0 940.9 1 60
2020-03-09 20:00:00 11.3 5 Oeste 12 Sudoeste 0 940.6 0.5 54
2020-03-09 19:00:00 12.8 3 Oeste 16 Oeste 0 940.5 0.2 45
2020-03-09 18:00:00 13.6 7 Noroeste 17 Noroeste 0 939.9 -0.5 40
2020-03-09 17:00:00 14.5 10 Noroeste 22 Noroeste 0 940.1 -1.5 38
2020-03-09 16:00:00 14.9 9 Noroeste 24 Sudoeste 0 940.3 -1.5 39
2020-03-09 15:00:00 14.1 5 Noroeste 18 Noroeste 0 940.4 -1.8 46
2020-03-09 14:00:00 13.1 8 Noroeste 21 Norte 0 941.6 -0.8 47
2020-03-09 13:00:00 12.2 9 Noroeste 21 Norte 0 941.8 -0.3 50
2020-03-09 12:00:00 11.1 6 Noroeste 17 Noroeste 0 942.2 0.6 59
2020-03-09 11:00:00 9.3 4 Noroeste 11 Noroeste 0 942.4 1.2 69
2020-03-09 10:00:00 7 5 Sur 13 Sudoeste 0 942.1 1.4 77
2020-03-09 09:00:00 4.3 8 Sur 10 Sur 0 941.6 1.3 92
2020-03-09 08:00:00 3.1 3 Sudeste 9 Oeste 0 941.2 1.2 94
2020-03-09 07:00:00 3.7 3 Oeste 12 Oeste 0 940.7 0.6 91
2020-03-09 06:00:00 4.6 7 Oeste 22 Oeste 0 940.3 0.3 88
2020-03-09 05:00:00 4.7 9 Oeste 18 Oeste 0 940 -0.2 88
2020-03-09 04:00:00 5.3 9 Oeste 24 Oeste 0 940.1 0 83
2020-03-09 03:00:00 5.7 10 Oeste 21 Oeste 0 940 0.3 85
2020-03-09 02:00:00 6.2 8 Oeste 24 Oeste 0 940.2 0.7 88
2020-03-09 01:00:00 7 11 Oeste 26 Oeste 0 940.1 1 91
2020-03-09 00:00:00 7.7 9 Oeste 28 Oeste 0 939.7 0.8 91
2020-03-08 23:00:00 8.1 12 Oeste 27 Oeste 0 939.5 1.4 89
2020-03-08 22:00:00 9.1 12 Oeste 32 Oeste 0 939.1 1.1 84
2020-03-08 21:00:00 9.9 11 Oeste 29 Oeste 0 938.9 0.9 79
2020-03-08 20:00:00 11 13 Sudoeste 28 Oeste 0 938.1 0 73
2020-03-08 19:00:00 12.3 13 Oeste 28 Oeste 0 938 -0.1 70
2020-03-08 18:00:00 12.7 9 Oeste 26 Oeste 0 938 -0.4 69
2020-03-08 17:00:00 14.2 13 Oeste 25 Sudoeste 0 938.1 -0.9 62
2020-03-08 16:00:00 13 10 Oeste 23 Oeste 0 938.1 -1.8 62
2020-03-08 15:00:00 11.4 9 Sudoeste 22 Sudoeste 0 938.4 -2 62
2020-03-08 14:00:00 10.7 13 Sudoeste 26 Oeste 0 939 -1.1 64
2020-03-08 13:00:00 10.1 9 Sudoeste 19 Sudoeste 0 939.9 -0.3 72
2020-03-08 12:00:00 8.3 9 Sudoeste 18 Sudoeste 0 940.4 0.5 77
2020-03-08 11:00:00 5.5 8 Sur 19 Sur 0 940.1 0.7 84
2020-03-08 10:00:00 3.5 9 Sur 18 Sur 0 940.2 1.1 85
2020-03-08 09:00:00 2.9 4 Sur 10 Sudeste 0 939.9 1.3 85
2020-03-08 08:00:00 1.1 2 Sur 12 Sur 0 939.4 0.8 92
2020-03-08 07:00:00 1.3 3 Sur 23 Sur 0 939.1 0.6 90
2020-03-08 06:00:00 2.2 13 Sur 22 Sur 0 938.6 -0.6 89
2020-03-08 05:00:00 2.7 6 Sur 14 Sur 0 938.6 -0.6 88
2020-03-08 04:00:00 3.2 5 Sur 13 Sur 0 938.5 -1 88
2020-03-08 03:00:00 4.2 5 Sur 11 Sur 0 939.2 -0.6 85
2020-03-08 02:00:00 5 5 Sudoeste 10 Sur 0 939.2 -1 82
2020-03-08 01:00:00 5.9 4 Sur 9 Sur 0 939.5 -0.7 79
2020-03-08 00:00:00 6.5 4 Sur 10 Sur 0 939.8 0 78
2020-03-07 23:00:00 7.3 3 Sur 8 Sur 0 940.2 0.4 74
2020-03-07 22:00:00 7.8 5 Sur 9 Sudoeste 0 940.2 0.6 73
2020-03-07 21:00:00 8.9 4 Sudoeste 8 Sudoeste 0 939.8 0.5 69
2020-03-07 20:00:00 10.3 5 Sudoeste 9 Sudoeste 0 939.8 0.4 62
2020-03-07 19:00:00 11.7 5 Oeste 11 Oeste 0 939.6 -0.2 57
2020-03-07 18:00:00 12.7 4 Oeste 14 Oeste 0 939.3 -0.8 54
2020-03-07 17:00:00 13.9 8 Noroeste 19 Oeste 0 939.4 -1.4 49
2020-03-07 16:00:00 14.5 8 Sudoeste 20 Oeste 0 939.8 -1.5 49
2020-03-07 15:00:00 14.2 6 Oeste 19 Oeste 0 940.1 -1.4 53
2020-03-07 14:00:00 12.5 10 Sudoeste 19 Oeste 0 940.8 -0.7 59
2020-03-07 13:00:00 10.2 6 Sur 16 Sudoeste 0 941.3 -0.1 65
2020-03-07 12:00:00 8.4 8 Sudoeste 15 Sudoeste 0 941.5 0.5 71
2020-03-07 11:00:00 5.9 6 Sudeste 12 Sur 0 941.5 1.3 74
2020-03-07 10:00:00 3.6 6 Sur 15 Sur 0 941.4 1.6 80
2020-03-07 09:00:00 3.1 10 Sur 14 Sur 0 941 1.9 78
2020-03-07 08:00:00 1.4 5 Oeste 9 Sudeste 0 940.2 1.1 89
2020-03-07 07:00:00 1.4 4 Sudeste 12 Oeste 0 939.8 0.5 84
2020-03-07 06:00:00 2.6 2 Oeste 13 Oeste 0 939.1 -0.3 79
2020-03-07 05:00:00 3.5 7 Oeste 15 Oeste 0 939.1 -0.2 79
2020-03-07 04:00:00 2.5 4 Sudoeste 19 Noroeste 0 939.3 -0.4 81
2020-03-07 03:00:00 2.4 8 Oeste 20 Noroeste 0 939.4 0.1 77
2020-03-07 02:00:00 2.5 9 Oeste 18 Noroeste 0 939.3 0.7 77
2020-03-07 01:00:00 3.1 10 Noroeste 21 Noroeste 0 939.7 1 73
2020-03-07 00:00:00 3.3 8 Oeste 19 Oeste 0 939.3 1.4 73
2020-03-06 23:00:00 4 9 Noroeste 18 Noroeste 0 938.6 1.6 70
2020-03-06 22:00:00 4.1 6 Noroeste 15 Noroeste 0 938.7 2.7 71
2020-03-06 21:00:00 5.2 4 Noroeste 21 Noroeste 0 937.9 2.7 61
2020-03-06 20:00:00 6.3 8 Noroeste 28 Noroeste 0 937 2.6 55
2020-03-06 19:00:00 7.9 15 Noroeste 41 Noroeste 0 936 2.3 48
2020-03-06 18:00:00 8.9 15 Noroeste 40 Noroeste 0 935.2 1.5 49
2020-03-06 17:00:00 9.5 19 Noroeste 42 Noroeste 0 934.4 0.2 46
2020-03-06 16:00:00 10.3 17 Noroeste 44 Noroeste 0 933.7 -0.5 40
2020-03-06 15:00:00 10.1 19 Noroeste 41 Norte 0 933.7 -0.1 46
2020-03-06 14:00:00 10.2 16 Noroeste 49 Noroeste 0 934.2 1.1 53
2020-03-06 13:00:00 7.9 18 Noroeste 46 Noroeste 0 934.2 2.2 53
2020-03-06 12:00:00 8.4 22 Noroeste 49 Noroeste 0 933.8 2.8 54
2020-03-06 11:00:00 7.9 14 Oeste 42 Oeste 0 933.1 2.5 66
2020-03-06 10:00:00 6.4 22 Oeste 44 Oeste 0 932 1.7 71
2020-03-06 09:00:00 4.9 18 Oeste 41 Sudoeste 0 931 1.9 80
2020-03-06 08:00:00 4.1 20 Oeste 49 Oeste 0 930.6 2 83
2020-03-06 07:00:00 4.6 19 Oeste 42 Oeste 0 930.3 1.7 85
2020-03-06 06:00:00 4.6 23 Oeste 45 Oeste 0 929.1 -0.3 87
2020-03-06 05:00:00 5.3 20 Oeste 46 Oeste 0 928.6 -0.9 88
2020-03-06 04:00:00 5.8 23 Oeste 42 Oeste 0 928.6 -1.4 86
2020-03-06 03:00:00 5.6 20 Oeste 37 Oeste 0 929.4 -1 86
2020-03-06 02:00:00 5.3 12 Sudoeste 32 Oeste 0 929.5 -1.1 85
2020-03-06 01:00:00 5.6 15 Oeste 36 Sudoeste 0 930 0 81
2020-03-06 00:00:00 5.2 14 Oeste 34 Oeste 0 930.4 0.8 84
2020-03-05 23:00:00 5.8 12 Oeste 23 Oeste 0 930.6 1.6 84
2020-03-05 22:00:00 6.6 9 Noroeste 28 Sudoeste 0 930 1.7 78
2020-03-05 21:00:00 7.3 9 Oeste 18 Oeste 0 929.6 2.1 78
2020-03-05 20:00:00 7.8 9 Noroeste 30 Oeste 0 929 1.8 75
2020-03-05 19:00:00 9.7 13 Noroeste 32 Noroeste 0 928.3 1.6 65
2020-03-05 18:00:00 10.4 8 Noroeste 25 Noroeste 1 927.5 0.8 79
2020-03-05 17:00:00 11.7 19 Oeste 48 Oeste 0.4 927.2 0.2 70
2020-03-05 16:00:00 13.3 26 Oeste 53 Oeste 0 926.7 -0.4 57
2020-03-05 15:00:00 13.1 23 Oeste 56 Noroeste 0 926.7 -0.4 56
2020-03-05 14:00:00 12.9 23 Oeste 56 Oeste 0 927 0.1 59
2020-03-05 13:00:00 11.8 28 Oeste 58 Noroeste 0 927.1 1.2 60
2020-03-05 12:00:00 10.3 30 Oeste 58 Oeste 0 927.1 2.8 67
2020-03-05 11:00:00 9.7 25 Oeste 53 Oeste 0 926.9 3 75
2020-03-05 10:00:00 8.3 28 Oeste 60 Oeste 0.6 925.9 1.4 79
2020-03-05 09:00:00 10.7 18 Sudoeste 43 Sudoeste 0 924.3 -1.3 89
2020-03-05 08:00:00 10.8 13 Sudoeste 37 Sudoeste 0 923.9 -2.2 81
2020-03-05 07:00:00 10.8 12 Sudoeste 33 Sudoeste 0 924.5 -2.8 83
2020-03-05 06:00:00 10.9 8 Sudoeste 33 Sudoeste 0 925.6 -3 87
2020-03-05 05:00:00 10.7 12 Sudoeste 33 Sudoeste 0 926.1 -3.8 93
2020-03-05 04:00:00 11.1 9 Sudoeste 32 Sudoeste 0 927.3 -3.4 89
2020-03-05 03:00:00 11.4 9 Sudoeste 25 Sudoeste 0 928.6 -3 87
2020-03-05 02:00:00 11.5 9 Sudoeste 27 Sudoeste 0 929.9 -2.4 88
2020-03-05 01:00:00 11.7 8 Sudoeste 20 Sudoeste 0 930.7 -2 87
2020-03-05 00:00:00 11.6 6 Sudoeste 25 Sudoeste 0 931.6 -1.2 89
2020-03-04 23:00:00 11.9 11 Sudoeste 23 Sudoeste 0 932.3 -0.8 85
2020-03-04 22:00:00 12 6 Sudoeste 18 Sudoeste 0 932.7 -0.3 83
2020-03-04 21:00:00 12.4 5 Sudoeste 23 Oeste 0 932.8 -0.2 77
2020-03-04 20:00:00 12.8 12 Oeste 26 Oeste 0 933.1 -0.1 75
2020-03-04 19:00:00 13.2 9 Oeste 34 Oeste 0 933 -0.8 73
2020-03-04 18:00:00 14.5 19 Oeste 41 Oeste 0 933 -1.3 67
2020-03-04 17:00:00 14.9 14 Oeste 35 Sudoeste 0 933.2 -1.8 67
2020-03-04 16:00:00 15 17 Oeste 34 Oeste 0 933.8 -1.6 67
2020-03-04 15:00:00 15.5 19 Oeste 32 Oeste 0 934.3 -1.4 64
2020-03-04 14:00:00 14.2 15 Oeste 37 Oeste 0 935 -0.7 69
2020-03-04 13:00:00 14 17 Oeste 41 Sudoeste 0 935.4 0 69
2020-03-04 12:00:00 13.7 18 Oeste 38 Sudoeste 0 935.7 0.7 73
2020-03-04 11:00:00 12.8 19 Oeste 35 Oeste 0 935.7 1.2 78
2020-03-04 10:00:00 11.7 19 Oeste 39 Oeste 0 935.4 1.2 82
2020-03-04 09:00:00 10.9 16 Oeste 35 Sudoeste 0 935 1.2 87
2020-03-04 08:00:00 10.9 17 Oeste 41 Sur 0 934.5 0.7 87
2020-03-04 07:00:00 11.1 17 Oeste 36 Oeste 0 934.2 0.4 87
2020-03-04 06:00:00 11.5 14 Oeste 32 Sudoeste 0 933.8 -0.4 88
2020-03-04 05:00:00 11.7 11 Sudoeste 26 Oeste 0 933.8 -0.3 89
2020-03-04 04:00:00 11.8 15 Sudoeste 30 Oeste 0 933.8 -0.2 89
2020-03-04 03:00:00 12 12 Sudoeste 30 Oeste 0 934.2 0.2 90
2020-03-04 02:00:00 11.9 14 Sudoeste 31 Oeste 0 934.1 0.3 91
2020-03-04 01:00:00 11.9 16 Oeste 31 Oeste 0 934 0.7 89
2020-03-04 00:00:00 11.3 11 Oeste 24 Oeste 0 934 1.4 90
2020-03-03 23:00:00 11.2 13 Oeste 31 Oeste 0 933.8 1.8 85
2020-03-03 22:00:00 11.7 10 Oeste 28 Oeste 0 933.3 2.2 78
2020-03-03 21:00:00 12.2 13 Oeste 31 Oeste 0 932.6 2.5 69
2020-03-03 20:00:00 13.3 15 Oeste 35 Oeste 0 932 2.9 73
2020-03-03 19:00:00 14.5 16 Oeste 41 Oeste 0 931.1 2.3 70
2020-03-03 18:00:00 15.6 21 Oeste 45 Oeste 0 930.1 1.3 61
2020-03-03 17:00:00 16.8 22 Oeste 62 Noroeste 0 929.1 0.3 57
2020-03-03 16:00:00 17.8 27 Oeste 60 Oeste 0 928.8 -0.3 59
2020-03-03 15:00:00 17.2 25 Oeste 62 Oeste 0 928.8 -0.3 66
2020-03-03 14:00:00 15.8 33 Oeste 58 Oeste 0 928.8 -0.4 71
2020-03-03 13:00:00 13.5 24 Oeste 55 Oeste 0 929.1 0.4 80
2020-03-03 12:00:00 10.5 26 Oeste 52 Sudoeste 0 929.1 0.7 90
2020-03-03 11:00:00 9.2 22 Oeste 49 Sudoeste 0 929.2 1 92
2020-03-03 10:00:00 8.2 21 Oeste 46 Oeste 0 928.7 -0.2 91
2020-03-03 09:00:00 7.5 24 Oeste 51 Oeste 0 928.4 -0.9 91
2020-03-03 08:00:00 6.4 18 Oeste 35 Oeste 0.2 928.2 -1.4 95
2020-03-03 07:00:00 5.6 11 Sudoeste 32 Sudoeste 0.2 928.9 -1.5 95
2020-03-03 06:00:00 5.4 10 Sudoeste 27 Oeste 0.6 929.3 -2.1 93
2020-03-03 05:00:00 5.4 9 Sudoeste 27 Sudoeste 0 929.6 -2.2 89
2020-03-03 04:00:00 5.2 11 Sudoeste 24 Sudoeste 0 930.4 -1.9 85
2020-03-03 03:00:00 5.2 11 Sudoeste 29 Sudoeste 0 931.4 -0.7 81
2020-03-03 02:00:00 5.1 12 Sudoeste 27 Sudoeste 0 931.8 -0.4 80
2020-03-03 01:00:00 4.7 8 Sudoeste 21 Sudoeste 0 932.3 0.4 81
2020-03-03 00:00:00 4.4 11 Sudoeste 20 Sudoeste 0 932.1 0.8 80